Time;durP1;ratioP1;P1;durP2;ratioP2;P2;SDS_P1;SDS_P2;PMS_P1;PMS_P2;Temp;Humidity;BMP_temperature;BMP_pressure;BME280_temperature;BME280_humidity;BME280_pressure;Samples;Min_cycle;Max_cycle;Signal;HPM_P1;HPM_P2
2022/11/19 00:01:18;;;;;;;5.60;4.43;;;7.00;99.90;;;;;;5030262;28;20843;-69
2022/11/19 00:03:44;;;;;;;4.03;3.63;;;7.00;99.90;;;;;;5015688;28;20442;-70
2022/11/19 00:06:11;;;;;;;4.37;3.97;;;7.00;99.90;;;;;;5013510;28;20444;-68
2022/11/19 00:08:37;;;;;;;4.50;3.93;;;7.00;99.90;;;;;;5004766;28;20546;-67
2022/11/19 00:11:04;;;;;;;7.67;3.17;;;7.00;99.90;;;;;;5015847;28;20438;-67
2022/11/19 00:13:30;;;;;;;5.37;4.00;;;7.00;99.90;;;;;;5012860;28;20441;-67
2022/11/19 00:16:10;;;;;;;7.13;4.27;;;7.00;99.90;;;;;;5018447;28;20446;-67
2022/11/19 00:18:35;;;;;;;4.23;3.83;;;7.00;99.90;;;;;;5002692;28;20200;-67
2022/11/19 00:21:06;;;;;;;3.70;3.33;;;7.00;99.90;;;;;;5009787;28;20532;-67
2022/11/19 00:23:32;;;;;;;4.33;3.93;;;6.90;99.90;;;;;;5009780;28;20198;-67
2022/11/19 00:26:06;;;;;;;3.93;2.90;;;6.90;99.90;;;;;;5010566;28;20445;-67
2022/11/19 00:28:32;;;;;;;3.00;2.70;;;6.90;99.90;;;;;;5005485;28;20417;-67
2022/11/19 00:31:09;;;;;;;3.00;2.70;;;6.90;99.90;;;;;;5025903;28;20519;-67
2022/11/19 00:33:36;;;;;;;5.37;2.63;;;6.90;99.90;;;;;;5010036;28;20224;-67
2022/11/19 00:36:02;;;;;;;4.20;2.70;;;6.90;99.90;;;;;;5015857;28;20434;-67
2022/11/19 00:38:29;;;;;;;5.37;2.87;;;6.80;99.90;;;;;;5009150;28;20459;-67
2022/11/19 00:40:55;;;;;;;3.33;2.63;;;6.80;99.90;;;;;;5025806;28;20433;-67
2022/11/19 00:46:05;;;;;;;4.40;3.40;;;6.80;99.90;;;;;;5020896;28;20772;-67
2022/11/19 00:48:31;;;;;;;8.30;3.70;;;6.80;99.90;;;;;;5010277;28;20469;-67
2022/11/19 00:50:56;;;;;;;3.90;3.10;;;6.80;99.90;;;;;;5026644;28;20441;-67
2022/11/19 00:53:22;;;;;;;5.23;2.83;;;6.80;99.90;;;;;;5012531;28;20218;-67
2022/11/19 00:55:47;;;;;;;2.33;2.13;;;6.90;99.90;;;;;;5022828;28;20187;-67
2022/11/19 00:58:13;;;;;;;7.33;2.80;;;6.90;99.90;;;;;;5016443;28;20203;-67
2022/11/19 01:00:38;;;;;;;4.50;2.67;;;6.90;99.90;;;;;;5015333;28;20186;-67
2022/11/19 01:03:04;;;;;;;3.03;2.53;;;6.90;99.90;;;;;;5011388;28;20222;-67
2022/11/19 01:05:30;;;;;;;3.57;2.77;;;6.90;99.90;;;;;;5009863;28;20194;-67
2022/11/19 01:07:56;;;;;;;3.03;2.03;;;6.80;99.90;;;;;;5023795;23;20234;-65
2022/11/19 01:10:21;;;;;;;3.03;2.73;;;6.80;99.90;;;;;;5003262;28;20186;-65
2022/11/19 01:15:31;;;;;;;2.33;2.13;;;6.80;99.90;;;;;;4994342;28;20236;-65
2022/11/19 01:17:57;;;;;;;2.03;1.83;;;6.70;99.90;;;;;;4999185;28;21007;-65
2022/11/19 01:20:22;;;;;;;4.87;2.50;;;6.60;99.90;;;;;;4991619;28;20554;-65
2022/11/19 01:22:48;;;;;;;2.17;1.73;;;6.60;99.90;;;;;;4991899;28;20186;-65
2022/11/19 01:25:13;;;;;;;1.83;1.73;;;6.60;99.90;;;;;;4991203;28;20183;-65
2022/11/19 01:27:39;;;;;;;3.80;2.37;;;6.70;99.90;;;;;;4983990;28;20211;-65
2022/11/19 01:30:06;;;;;;;2.50;1.50;;;6.70;99.90;;;;;;4991377;28;20180;-65
2022/11/19 01:32:31;;;;;;;2.20;2.00;;;6.70;99.90;;;;;;4991941;28;20443;-65
2022/11/19 01:34:57;;;;;;;1.83;1.70;;;6.70;99.90;;;;;;4991039;28;20441;-65
2022/11/19 01:37:23;;;;;;;1.90;1.80;;;6.70;99.90;;;;;;4990882;28;20410;-65
2022/11/19 01:39:49;;;;;;;3.00;1.77;;;6.70;99.90;;;;;;4989115;28;21113;-65
2022/11/19 01:42:49;;;;;;;1.73;1.53;;;6.80;99.90;;;;;;4991639;28;20259;-65
2022/11/19 01:45:35;;;;;;;2.10;1.50;;;6.80;99.90;;;;;;4990956;28;20172;-64
2022/11/19 01:48:27;;;;;;;2.80;1.73;;;6.70;99.90;;;;;;4990209;28;20461;-64
2022/11/19 01:51:00;;;;;;;3.17;1.63;;;6.70;99.90;;;;;;4991595;28;20955;-65
2022/11/19 01:53:29;;;;;;;2.37;1.40;;;6.70;99.90;;;;;;4992640;28;20438;-65
2022/11/19 01:55:58;;;;;;;3.87;1.40;;;6.60;99.90;;;;;;4995119;28;20431;-65
2022/11/19 01:58:24;;;;;;;1.90;1.60;;;6.60;99.90;;;;;;4994739;28;20457;-65
2022/11/19 02:00:50;;;;;;;1.70;1.60;;;6.60;99.90;;;;;;4994682;28;20438;-65
2022/11/19 02:03:17;;;;;;;1.33;1.23;;;6.60;99.90;;;;;;4994568;28;20504;-65
2022/11/19 02:05:44;;;;;;;2.67;1.60;;;6.60;99.90;;;;;;4994392;28;20172;-65
2022/11/19 02:08:32;;;;;;;3.03;1.80;;;6.60;99.90;;;;;;4994731;28;20998;-64
2022/11/19 02:11:09;;;;;;;2.20;1.70;;;6.50;99.90;;;;;;4992584;28;20462;-65
2022/11/19 02:13:44;;;;;;;2.27;1.97;;;6.60;99.90;;;;;;4993901;28;20438;-64
2022/11/19 02:16:41;;;;;;;1.83;1.57;;;6.60;99.90;;;;;;4994115;28;20438;-65
2022/11/19 02:19:15;;;;;;;2.20;1.73;;;6.60;99.90;;;;;;4992381;28;20489;-65
2022/11/19 02:22:05;;;;;;;2.80;1.70;;;6.50;99.90;;;;;;4993976;28;20517;-65
2022/11/19 02:24:51;;;;;;;2.33;2.13;;;6.50;99.90;;;;;;4993725;28;20426;-65
2022/11/19 02:27:54;;;;;;;2.43;2.10;;;6.50;99.90;;;;;;4994368;28;20508;-65
2022/11/19 02:30:20;;;;;;;3.33;1.83;;;6.60;99.90;;;;;;4985811;28;20525;-65
2022/11/19 02:33:07;;;;;;;2.73;2.53;;;6.60;99.90;;;;;;4994911;28;20596;-65
2022/11/19 02:35:44;;;;;;;2.50;2.20;;;6.60;99.90;;;;;;4992598;28;20655;-64
2022/11/19 02:38:36;;;;;;;2.40;1.80;;;6.60;99.90;;;;;;4993338;28;20462;-65
2022/11/19 02:41:32;;;;;;;2.90;2.70;;;6.60;99.90;;;;;;4993671;28;20446;-65
2022/11/19 02:46:37;;;;;;;2.73;2.47;;;6.60;99.90;;;;;;4992219;28;20529;-65
2022/11/19 02:49:04;;;;;;;2.70;2.10;;;6.60;99.90;;;;;;4994961;28;20489;-65
2022/11/19 02:51:30;;;;;;;2.40;2.20;;;6.60;99.90;;;;;;5005047;28;20452;-65
2022/11/19 02:53:56;;;;;;;4.00;2.60;;;6.60;99.90;;;;;;4999184;28;20430;-65
2022/11/19 02:56:45;;;;;;;2.60;2.20;;;6.70;99.90;;;;;;5001301;28;20222;-65
2022/11/19 03:04:41;;;;;;;2.93;2.60;;;6.70;99.90;;;;;;5005792;28;20950;-65
2022/11/19 03:07:15;;;;;;;3.80;3.50;;;6.80;99.90;;;;;;4996208;28;20438;-65
2022/11/19 03:09:46;;;;;;;4.80;2.33;;;6.70;99.90;;;;;;4992210;28;20180;-65
2022/11/19 03:12:40;;;;;;;2.03;1.83;;;6.70;99.90;;;;;;4993873;28;20513;-65
2022/11/19 03:18:53;;;;;;;2.33;2.13;;;6.70;99.90;;;;;;4997012;28;20450;-65
2022/11/19 03:22:02;;;;;;;3.03;2.10;;;6.70;99.90;;;;;;4985881;28;20790;-65
2022/11/19 03:24:34;;;;;;;4.97;2.67;;;6.70;99.90;;;;;;4987510;28;20906;-65
2022/11/19 03:27:20;;;;;;;2.00;1.83;;;6.80;99.90;;;;;;4989068;28;20431;-65
2022/11/19 03:29:50;;;;;;;2.50;2.10;;;6.80;99.90;;;;;;4995732;28;20496;-65
2022/11/19 03:32:21;;;;;;;2.50;1.93;;;6.80;99.90;;;;;;5007367;28;20457;-65
2022/11/19 03:34:50;;;;;;;3.43;1.90;;;6.80;99.90;;;;;;4998098;28;20577;-65
2022/11/19 03:37:19;;;;;;;3.60;1.77;;;6.80;99.90;;;;;;5001338;28;20481;-65
2022/11/19 03:39:46;;;;;;;2.57;2.13;;;6.80;99.90;;;;;;5001590;28;20940;-65
2022/11/19 03:42:15;;;;;;;3.77;2.20;;;6.80;99.90;;;;;;4994966;28;20437;-64
2022/11/19 03:44:50;;;;;;;2.07;1.90;;;6.90;99.90;;;;;;5002328;28;20857;-65
2022/11/19 03:47:19;;;;;;;2.80;2.07;;;6.90;99.90;;;;;;5001384;28;20452;-65
2022/11/19 03:49:49;;;;;;;2.73;1.93;;;6.90;99.90;;;;;;4997971;28;20446;-65
2022/11/19 03:52:18;;;;;;;2.40;2.17;;;6.90;99.90;;;;;;4997409;28;20434;-65
2022/11/19 03:54:44;;;;;;;2.70;2.50;;;6.90;99.90;;;;;;4996980;28;21002;-65
2022/11/19 03:57:14;;;;;;;2.80;2.30;;;7.00;99.90;;;;;;4999212;28;20509;-65
2022/11/19 03:59:40;;;;;;;2.50;2.30;;;7.00;99.90;;;;;;4998525;28;20186;-65
2022/11/19 04:02:08;;;;;;;2.60;1.77;;;7.00;99.90;;;;;;4999903;28;20438;-65
2022/11/19 04:04:36;;;;;;;2.23;1.90;;;7.10;99.90;;;;;;5003375;28;20593;-65
2022/11/19 04:07:14;;;;;;;2.57;1.90;;;7.10;99.90;;;;;;4996173;28;20785;-65
2022/11/19 04:09:40;;;;;;;2.90;1.67;;;7.10;99.90;;;;;;4992199;28;20450;-65
2022/11/19 04:12:10;;;;;;;2.80;1.87;;;7.10;99.90;;;;;;5002405;28;20478;-65
2022/11/19 04:14:36;;;;;;;1.93;1.83;;;7.10;99.90;;;;;;5004042;28;20827;-65
2022/11/19 04:17:01;;;;;;;5.10;2.30;;;7.10;99.90;;;;;;5004070;28;20465;-65
2022/11/19 04:19:27;;;;;;;2.57;2.30;;;7.10;99.90;;;;;;5005619;28;20182;-65
2022/11/19 04:21:52;;;;;;;4.17;2.00;;;7.10;99.90;;;;;;5008476;28;20218;-65
2022/11/19 04:24:18;;;;;;;3.50;3.20;;;7.00;99.90;;;;;;4992266;28;20187;-65
2022/11/19 04:26:43;;;;;;;2.93;2.40;;;7.00;99.90;;;;;;4990314;28;20183;-65
2022/11/19 04:29:09;;;;;;;2.60;2.40;;;6.90;99.90;;;;;;5009030;28;20206;-65
2022/11/19 04:31:35;;;;;;;7.27;2.50;;;6.90;99.90;;;;;;4996893;28;20684;-65
2022/11/19 04:34:00;;;;;;;2.50;2.30;;;6.90;99.90;;;;;;4991746;28;20195;-65
2022/11/19 04:36:26;;;;;;;4.73;2.97;;;6.80;99.90;;;;;;5005719;28;20698;-65
2022/11/19 04:38:51;;;;;;;3.00;2.70;;;6.80;99.90;;;;;;5005861;28;20237;-65
2022/11/19 04:41:17;;;;;;;3.63;2.73;;;6.80;99.90;;;;;;4999888;28;20191;-65
2022/11/19 04:43:42;;;;;;;3.63;3.20;;;6.70;99.90;;;;;;5008103;28;20202;-65
2022/11/19 04:46:08;;;;;;;3.00;2.70;;;6.70;99.90;;;;;;4994473;28;20206;-65
2022/11/19 04:48:33;;;;;;;4.67;2.73;;;6.70;99.90;;;;;;4999184;28;20215;-65
2022/11/19 04:50:59;;;;;;;3.10;2.80;;;6.70;99.90;;;;;;4997469;28;20253;-65
2022/11/19 04:53:24;;;;;;;3.97;3.67;;;6.70;99.90;;;;;;5004390;28;20589;-65
2022/11/19 04:55:50;;;;;;;3.67;3.30;;;6.70;99.90;;;;;;5003919;28;20198;-65
2022/11/19 04:58:15;;;;;;;3.70;3.40;;;6.70;99.90;;;;;;5002167;28;20294;-64
2022/11/19 05:00:41;;;;;;;3.20;2.90;;;6.70;99.90;;;;;;5006931;28;20621;-65
2022/11/19 05:03:07;;;;;;;4.23;3.83;;;6.70;99.90;;;;;;5001097;28;20219;-65
2022/11/19 05:05:32;;;;;;;3.60;3.30;;;6.70;99.90;;;;;;4999043;28;20191;-65
2022/11/19 05:07:58;;;;;;;4.23;3.60;;;6.80;99.90;;;;;;5000233;28;20746;-65
2022/11/19 05:10:23;;;;;;;4.43;3.70;;;6.80;99.90;;;;;;4999007;28;20172;-65
2022/11/19 05:12:49;;;;;;;5.13;4.63;;;6.80;99.90;;;;;;4991060;28;20529;-65
2022/11/19 05:15:14;;;;;;;6.63;3.47;;;6.80;99.90;;;;;;4991008;28;20183;-65
2022/11/19 05:17:40;;;;;;;3.97;3.57;;;6.80;99.90;;;;;;4990313;28;20206;-65
2022/11/19 05:20:06;;;;;;;4.20;3.80;;;6.80;99.90;;;;;;4990683;28;20176;-65
2022/11/19 05:22:32;;;;;;;6.73;4.30;;;6.80;99.90;;;;;;4991932;28;20184;-65
2022/11/19 05:24:57;;;;;;;5.40;4.20;;;6.80;99.90;;;;;;4990651;28;20516;-65
2022/11/19 05:27:23;;;;;;;4.77;3.80;;;6.80;99.90;;;;;;4990855;28;20576;-65
2022/11/19 05:29:48;;;;;;;4.10;3.80;;;6.80;99.90;;;;;;4987932;28;20191;-65
2022/11/19 05:32:14;;;;;;;6.03;3.87;;;6.80;99.90;;;;;;4993821;28;20178;-65
2022/11/19 05:34:39;;;;;;;4.47;3.90;;;6.80;99.90;;;;;;5001525;28;20196;-65
2022/11/19 05:37:05;;;;;;;4.80;3.37;;;6.80;99.90;;;;;;5004556;28;20187;-65
2022/11/19 05:39:30;;;;;;;4.17;3.70;;;6.80;99.90;;;;;;5004629;28;20205;-65
2022/11/19 05:41:56;;;;;;;3.70;3.40;;;6.70;99.90;;;;;;5004697;28;20187;-65
2022/11/19 05:44:21;;;;;;;3.97;3.40;;;6.70;99.90;;;;;;5007264;28;20264;-65
2022/11/19 05:46:47;;;;;;;4.23;3.67;;;6.70;99.90;;;;;;4999160;28;20258;-65
2022/11/19 05:49:12;;;;;;;3.63;3.33;;;6.80;99.90;;;;;;5004923;28;20577;-65
2022/11/19 05:51:38;;;;;;;3.47;2.97;;;6.80;99.90;;;;;;5002477;28;20209;-65
2022/11/19 05:54:03;;;;;;;6.17;3.33;;;6.80;99.90;;;;;;5006221;28;20254;-65
2022/11/19 05:56:29;;;;;;;3.20;2.73;;;6.80;99.90;;;;;;4999623;28;20661;-65
2022/11/19 05:58:54;;;;;;;3.53;3.23;;;6.80;99.90;;;;;;4999306;28;20203;-65
2022/11/19 06:01:27;;;;;;;3.63;3.10;;;6.80;99.90;;;;;;5001207;28;20261;-65
2022/11/19 06:03:53;;;;;;;3.80;3.40;;;6.80;99.90;;;;;;5000983;28;20295;-65
2022/11/19 06:06:20;;;;;;;3.40;3.10;;;6.80;99.90;;;;;;5002162;28;20524;-65
2022/11/19 06:08:46;;;;;;;3.33;2.77;;;6.80;99.90;;;;;;4997776;28;20472;-65
2022/11/19 06:11:46;;;;;;;6.57;3.37;;;6.80;99.90;;;;;;4998000;28;21034;-65
2022/11/19 06:13:57;;;;;;;2.50;2.30;;;6.80;99.90;;;;;;4998434;28;20430;-65
2022/11/19 06:16:22;;;;;;;3.10;2.90;;;6.80;99.90;;;;;;4996926;28;20427;-65
2022/11/19 06:18:48;;;;;;;2.77;2.53;;;6.70;99.90;;;;;;4998776;28;20622;-65
2022/11/19 06:21:13;;;;;;;3.07;2.73;;;6.80;99.90;;;;;;5001024;28;20197;-65
2022/11/19 06:23:39;;;;;;;5.63;2.97;;;6.80;99.90;;;;;;4998611;28;20282;-65
2022/11/19 06:26:06;;;;;;;3.20;2.90;;;6.80;99.90;;;;;;5001439;28;20708;-65
2022/11/19 06:28:32;;;;;;;3.23;2.93;;;6.80;99.90;;;;;;4997928;28;20214;-65
2022/11/19 06:30:58;;;;;;;3.10;2.80;;;6.80;99.90;;;;;;5007012;28;20429;-65
2022/11/19 06:33:23;;;;;;;3.60;3.30;;;6.80;99.90;;;;;;5005046;28;20181;-65
2022/11/19 06:35:49;;;;;;;3.47;3.17;;;6.70;99.90;;;;;;4998471;28;20190;-66
2022/11/19 06:38:15;;;;;;;3.20;2.90;;;6.70;99.90;;;;;;4992007;28;20210;-64
2022/11/19 06:40:41;;;;;;;3.40;3.10;;;6.70;99.90;;;;;;4998343;28;20198;-65
2022/11/19 06:43:07;;;;;;;5.80;3.60;;;6.70;99.90;;;;;;4993390;28;20977;-65
2022/11/19 06:45:32;;;;;;;4.20;3.80;;;6.70;99.90;;;;;;5005664;28;20438;-65
2022/11/19 06:47:58;;;;;;;5.13;4.20;;;6.70;99.90;;;;;;4997037;28;20222;-65
2022/11/19 06:50:23;;;;;;;4.10;3.60;;;6.70;99.90;;;;;;5003680;28;20636;-65
2022/11/19 06:52:49;;;;;;;4.20;3.47;;;6.70;99.90;;;;;;5001021;28;20187;-65
2022/11/19 06:55:14;;;;;;;7.40;4.50;;;6.70;99.90;;;;;;5002015;28;20183;-65
2022/11/19 06:57:40;;;;;;;5.10;3.83;;;6.70;99.90;;;;;;5001006;28;20672;-64
2022/11/19 07:00:06;;;;;;;7.57;3.33;;;6.70;99.90;;;;;;5004166;28;20240;-65
2022/11/19 07:02:31;;;;;;;3.63;3.30;;;6.60;99.90;;;;;;5000574;28;20240;-65
2022/11/19 07:04:57;;;;;;;4.17;3.33;;;6.60;99.90;;;;;;5008975;28;21042;-65
2022/11/19 07:07:22;;;;;;;2.67;2.43;;;6.60;99.90;;;;;;5001890;28;20206;-66
2022/11/19 07:09:49;;;;;;;4.50;3.80;;;6.60;99.90;;;;;;5005620;28;20203;-65
2022/11/19 07:12:14;;;;;;;3.13;2.70;;;6.60;99.90;;;;;;4995913;28;20533;-66
2022/11/19 07:14:40;;;;;;;3.00;2.80;;;6.60;99.90;;;;;;5001505;28;20184;-64
2022/11/19 07:17:05;;;;;;;2.80;2.60;;;6.60;99.90;;;;;;4995395;28;20202;-64
2022/11/19 07:19:31;;;;;;;3.40;3.10;;;6.70;99.90;;;;;;5004445;28;20687;-66
2022/11/19 07:21:56;;;;;;;4.47;3.00;;;6.70;99.90;;;;;;5003385;28;20246;-66
2022/11/19 07:24:22;;;;;;;3.40;3.10;;;6.70;99.90;;;;;;4996544;28;20238;-65
2022/11/19 07:26:48;;;;;;;6.43;4.70;;;6.70;99.90;;;;;;4992932;28;20184;-66
2022/11/19 07:29:14;;;;;;;5.77;3.87;;;6.60;99.90;;;;;;4991719;28;20599;-66
2022/11/19 07:31:40;;;;;;;4.93;3.23;;;6.60;99.90;;;;;;4999355;28;20192;-65
2022/11/19 07:34:10;;;;;;;4.63;2.80;;;6.70;99.90;;;;;;4996130;28;20430;-65
2022/11/19 07:36:36;;;;;;;4.03;3.10;;;6.90;99.90;;;;;;4995744;28;20548;-66
2022/11/19 07:39:04;;;;;;;4.63;3.07;;;7.60;99.90;;;;;;4998099;28;20473;-66
2022/11/19 07:44:13;;;;;;;4.47;2.67;;;8.50;99.90;;;;;;4991819;28;20963;-65
2022/11/19 07:46:40;;;;;;;2.50;2.30;;;8.50;99.90;;;;;;4991731;28;20466;-66
2022/11/19 07:49:05;;;;;;;2.77;2.57;;;8.40;99.90;;;;;;4992964;28;20298;-66
2022/11/19 07:51:31;;;;;;;4.90;3.00;;;8.40;99.90;;;;;;4992304;28;20938;-65
2022/11/19 07:53:56;;;;;;;2.83;2.63;;;8.40;99.90;;;;;;4993460;28;20184;-66
2022/11/19 07:56:22;;;;;;;3.13;2.83;;;8.40;99.90;;;;;;4991505;28;20188;-67
2022/11/19 07:58:48;;;;;;;4.10;2.30;;;8.30;99.90;;;;;;4993800;28;20203;-66
2022/11/19 08:01:19;;;;;;;2.50;2.30;;;8.30;99.90;;;;;;4992751;28;20443;-65
2022/11/19 08:03:46;;;;;;;5.90;3.40;;;8.40;99.90;;;;;;4992997;28;20198;-66
2022/11/19 08:06:14;;;;;;;2.93;2.13;;;8.40;99.90;;;;;;4991562;28;20809;-65
2022/11/19 08:08:40;;;;;;;3.43;2.87;;;8.30;99.90;;;;;;4992331;28;20964;-66
2022/11/19 08:11:07;;;;;;;2.47;2.27;;;8.30;99.90;;;;;;4992204;28;20442;-65
2022/11/19 08:13:34;;;;;;;2.93;2.47;;;8.30;99.90;;;;;;4992117;28;20533;-66
2022/11/19 08:16:02;;;;;;;3.90;2.03;;;8.30;99.90;;;;;;4993715;28;20505;-66
2022/11/19 08:18:27;;;;;;;2.13;1.93;;;8.30;99.90;;;;;;4989706;28;20467;-66
2022/11/19 08:20:53;;;;;;;2.20;2.07;;;8.20;99.90;;;;;;4992421;28;20512;-65
2022/11/19 08:23:19;;;;;;;3.63;2.60;;;8.20;99.90;;;;;;4992594;28;20188;-66
2022/11/19 08:25:45;;;;;;;4.43;3.63;;;8.30;99.90;;;;;;4990329;28;20191;-66
2022/11/19 08:28:11;;;;;;;2.50;2.30;;;8.70;99.90;;;;;;4991580;28;20903;-67
2022/11/19 08:30:39;;;;;;;2.20;1.97;;;9.40;99.90;;;;;;4990861;28;20183;-66
2022/11/19 08:33:05;;;;;;;1.87;1.77;;;9.60;99.90;;;;;;4993516;28;20442;-66
2022/11/19 08:35:31;;;;;;;2.60;2.40;;;9.40;99.90;;;;;;4991660;28;20442;-66
2022/11/19 08:37:57;;;;;;;5.63;3.33;;;9.20;99.90;;;;;;4991405;28;20975;-66
2022/11/19 08:40:24;;;;;;;3.23;3.00;;;9.00;99.90;;;;;;4988845;28;20634;-66
2022/11/19 08:42:58;;;;;;;4.00;2.00;;;8.90;99.90;;;;;;4991127;28;20194;-66
2022/11/19 08:45:26;;;;;;;1.93;1.73;;;8.70;99.90;;;;;;4998487;28;20445;-66
2022/11/19 08:47:52;;;;;;;1.93;1.83;;;8.60;99.90;;;;;;4994363;28;21006;-66
2022/11/19 08:50:18;;;;;;;2.73;1.67;;;8.60;99.90;;;;;;4986187;28;20438;-66
2022/11/19 08:52:43;;;;;;;4.93;4.40;;;8.50;99.90;;;;;;4991243;28;20788;-65
2022/11/19 08:55:09;;;;;;;4.03;3.53;;;8.50;99.90;;;;;;4990483;28;20184;-66
2022/11/19 08:57:34;;;;;;;4.40;2.60;;;8.50;99.90;;;;;;4990103;28;20205;-65
2022/11/19 09:00:00;;;;;;;3.07;2.70;;;8.50;99.90;;;;;;4991377;28;20611;-65
2022/11/19 09:02:25;;;;;;;2.43;1.80;;;8.40;99.90;;;;;;4991451;28;20175;-66
2022/11/19 09:04:51;;;;;;;3.07;2.30;;;8.40;99.90;;;;;;4993563;28;20238;-65
2022/11/19 09:07:16;;;;;;;2.20;1.83;;;8.40;99.90;;;;;;4990058;28;20357;-66
2022/11/19 09:09:42;;;;;;;5.23;1.50;;;8.30;99.90;;;;;;4991575;28;20207;-67
2022/11/19 09:12:08;;;;;;;5.37;2.73;;;8.30;99.90;;;;;;4990370;28;20261;-66
2022/11/19 09:14:34;;;;;;;2.50;2.30;;;8.40;99.90;;;;;;4990242;28;20175;-66
2022/11/19 09:17:00;;;;;;;3.40;1.73;;;8.50;99.90;;;;;;4987113;28;20446;-66
2022/11/19 09:19:25;;;;;;;5.93;3.90;;;8.50;99.90;;;;;;4989868;28;20188;-67
2022/11/19 09:21:51;;;;;;;3.20;2.90;;;8.60;99.90;;;;;;4991276;28;20215;-66
2022/11/19 09:24:16;;;;;;;2.13;2.00;;;8.50;99.90;;;;;;5003283;28;20179;-66
2022/11/19 09:26:42;;;;;;;2.97;1.80;;;8.50;99.90;;;;;;4993072;28;20191;-66
2022/11/19 09:29:07;;;;;;;1.90;1.40;;;8.70;99.90;;;;;;4998262;28;20584;-66
2022/11/19 09:31:33;;;;;;;3.40;1.40;;;8.80;99.90;;;;;;4991824;28;20843;-66
2022/11/19 09:33:59;;;;;;;1.60;1.50;;;9.00;99.90;;;;;;4991132;28;20195;-67
2022/11/19 09:36:24;;;;;;;1.20;1.10;;;9.10;99.90;;;;;;4990662;28;20266;-67
2022/11/19 09:38:54;;;;;;;2.40;1.67;;;9.20;99.90;;;;;;4990193;28;20305;-66
2022/11/19 09:41:28;;;;;;;1.43;1.33;;;9.30;99.90;;;;;;4988511;28;20183;-66
2022/11/19 09:44:18;;;;;;;1.60;1.50;;;9.30;99.90;;;;;;4991497;28;20537;-66
2022/11/19 09:47:12;;;;;;;3.20;2.50;;;9.30;99.90;;;;;;4988861;28;20983;-66
2022/11/19 09:49:45;;;;;;;5.07;3.93;;;9.10;99.90;;;;;;4992833;28;20481;-67
2022/11/19 09:52:15;;;;;;;3.33;2.43;;;9.00;99.90;;;;;;5001107;28;20437;-67
2022/11/19 09:54:56;;;;;;;3.27;2.33;;;9.00;99.90;;;;;;4999424;28;21093;-67
2022/11/19 09:57:50;;;;;;;2.93;2.00;;;9.10;99.90;;;;;;4991362;28;20458;-66
2022/11/19 10:00:18;;;;;;;2.30;2.10;;;9.10;99.90;;;;;;4994339;28;20821;-66
2022/11/19 10:02:44;;;;;;;2.17;1.97;;;9.20;99.90;;;;;;4994964;28;20435;-67
2022/11/19 10:05:23;;;;;;;2.47;2.27;;;9.30;99.90;;;;;;4998170;28;20788;-67
2022/11/19 10:08:30;;;;;;;2.30;1.87;;;9.60;99.90;;;;;;4989863;28;20218;-66
2022/11/19 10:11:34;;;;;;;3.70;3.10;;;9.90;99.90;;;;;;4986491;28;20450;-67
2022/11/19 10:14:27;;;;;;;3.93;2.10;;;9.90;99.90;;;;;;4988950;28;20434;-67
2022/11/19 10:17:04;;;;;;;6.10;5.07;;;9.70;99.90;;;;;;4997699;28;20870;-67
2022/11/19 10:19:44;;;;;;;2.40;2.10;;;9.70;99.90;;;;;;4995843;28;21027;-67
2022/11/19 10:22:22;;;;;;;2.80;2.30;;;9.80;99.90;;;;;;4995547;28;20436;-66
2022/11/19 10:25:02;;;;;;;4.17;3.77;;;9.90;99.90;;;;;;4994788;28;20446;-66
2022/11/19 10:27:41;;;;;;;4.13;1.90;;;9.80;99.90;;;;;;4987858;28;20457;-66
2022/11/19 10:30:15;;;;;;;2.67;2.40;;;9.70;99.90;;;;;;4994085;28;20520;-66
2022/11/19 10:32:54;;;;;;;2.53;2.30;;;9.60;99.90;;;;;;4993216;28;20498;-66
2022/11/19 10:35:32;;;;;;;3.90;2.57;;;9.60;99.90;;;;;;4997940;28;20556;-66
2022/11/19 10:38:01;;;;;;;2.17;1.97;;;9.70;99.90;;;;;;4997026;28;20559;-66
2022/11/19 10:40:34;;;;;;;2.50;1.67;;;9.70;99.90;;;;;;4996184;28;20446;-66
2022/11/19 10:43:37;;;;;;;2.50;2.30;;;9.60;99.90;;;;;;5000236;28;20443;-66
2022/11/19 10:46:05;;;;;;;5.80;2.43;;;9.70;99.90;;;;;;5006287;28;20580;-66
2022/11/19 10:48:36;;;;;;;2.87;1.47;;;9.60;99.90;;;;;;4994072;28;20549;-67
2022/11/19 10:51:13;;;;;;;2.43;1.70;;;9.60;99.90;;;;;;5002790;28;20450;-66
2022/11/19 10:53:41;;;;;;;2.00;1.60;;;9.70;99.90;;;;;;5004536;28;20430;-66
2022/11/19 10:56:31;;;;;;;2.20;2.10;;;9.90;99.90;;;;;;4994191;28;20804;-67
2022/11/19 10:59:06;;;;;;;4.20;2.30;;;10.00;99.90;;;;;;4993746;28;20988;-66
2022/11/19 11:01:36;;;;;;;1.73;1.60;;;10.00;99.90;;;;;;4990792;28;20948;-67
2022/11/19 11:04:21;;;;;;;2.53;2.33;;;9.90;99.90;;;;;;4993722;28;20473;-66
2022/11/19 11:07:02;;;;;;;2.67;1.70;;;9.90;99.90;;;;;;4989167;28;20442;-67
2022/11/19 11:09:36;;;;;;;2.10;2.00;;;10.00;99.90;;;;;;4987619;28;20535;-66
2022/11/19 11:15:21;;;;;;;2.00;1.60;;;11.30;99.90;;;;;;4993775;28;20808;-66
2022/11/19 11:17:58;;;;;;;2.47;1.97;;;13.50;99.90;;;;;;4988186;28;20461;-67
2022/11/19 11:20:27;;;;;;;2.10;1.47;;;14.10;99.90;;;;;;4988938;28;20880;-66
2022/11/19 11:23:16;;;;;;;2.40;1.80;;;13.40;99.90;;;;;;4995115;28;21363;-67
2022/11/19 11:26:09;;;;;;;2.40;2.20;;;12.90;99.90;;;;;;4992307;28;20437;-67
2022/11/19 11:28:35;;;;;;;2.77;2.40;;;13.50;99.90;;;;;;5003665;28;20505;-66
2022/11/19 11:31:01;;;;;;;2.90;2.50;;;12.90;99.90;;;;;;4996174;28;20478;-67
2022/11/19 11:33:41;;;;;;;2.07;1.80;;;12.50;99.90;;;;;;4999209;28;20429;-66
2022/11/19 11:36:13;;;;;;;3.67;1.80;;;12.50;99.90;;;;;;4998722;28;20439;-67
2022/11/19 11:38:41;;;;;;;2.30;1.90;;;12.60;99.90;;;;;;4996761;28;20876;-65
2022/11/19 11:41:12;;;;;;;1.90;1.47;;;12.10;99.90;;;;;;5005540;28;20438;-66
2022/11/19 11:44:00;;;;;;;1.97;1.43;;;11.40;99.90;;;;;;4993599;28;20525;-66
2022/11/19 11:46:51;;;;;;;4.87;1.50;;;11.00;99.90;;;;;;4988989;28;21556;-68
2022/11/19 11:49:22;;;;;;;2.60;1.80;;;10.60;99.90;;;;;;4992210;28;20669;-67
2022/11/19 11:51:59;;;;;;;2.57;1.60;;;10.20;99.90;;;;;;5001413;28;20450;-67
2022/11/19 11:54:25;;;;;;;1.40;1.17;;;10.10;99.90;;;;;;4989520;28;20446;-67
2022/11/19 11:56:51;;;;;;;4.30;1.37;;;9.90;99.90;;;;;;4991662;28;20438;-68
2022/11/19 11:59:26;;;;;;;3.00;1.87;;;9.90;99.90;;;;;;4991811;28;20290;-68
2022/11/19 12:01:59;;;;;;;1.80;1.07;;;9.80;99.90;;;;;;4992176;28;20191;-68
2022/11/19 12:04:25;;;;;;;1.93;1.40;;;9.70;99.90;;;;;;4984820;28;20533;-68
2022/11/19 12:07:06;;;;;;;3.47;1.53;;;9.70;99.90;;;;;;4991933;28;20999;-68
2022/11/19 12:10:09;;;;;;;1.97;1.50;;;9.70;99.90;;;;;;4989468;28;20289;-69
2022/11/19 12:12:41;;;;;;;1.73;1.57;;;9.70;99.90;;;;;;4988872;28;21043;-68
2022/11/19 12:15:25;;;;;;;3.50;1.80;;;9.70;99.90;;;;;;5006866;28;20437;-67
2022/11/19 12:18:08;;;;;;;3.00;2.70;;;9.70;99.90;;;;;;4986786;28;20508;-67
2022/11/19 12:20:45;;;;;;;10.40;2.07;;;9.80;99.90;;;;;;4987038;28;20445;-67
2022/11/19 12:23:19;;;;;;;1.67;1.27;;;9.80;99.90;;;;;;4992871;28;20473;-68
2022/11/19 12:25:50;;;;;;;2.00;1.40;;;9.70;99.90;;;;;;4992022;28;20489;-67
2022/11/19 12:28:51;;;;;;;1.53;1.13;;;9.70;99.90;;;;;;4991335;28;20467;-67
2022/11/19 12:31:25;;;;;;;1.63;1.53;;;9.70;99.90;;;;;;4970978;28;20448;-68
2022/11/19 12:34:18;;;;;;;1.80;1.70;;;9.60;99.90;;;;;;4988709;28;20451;-68
2022/11/19 12:37:05;;;;;;;3.20;2.70;;;9.60;99.90;;;;;;4986955;28;20443;-68
2022/11/19 12:39:53;;;;;;;1.80;1.17;;;9.70;99.90;;;;;;4988201;28;20452;-68
2022/11/19 12:42:43;;;;;;;2.27;1.90;;;9.60;99.90;;;;;;4985107;28;20935;-67
2022/11/19 12:45:35;;;;;;;2.30;1.73;;;9.60;99.90;;;;;;4992171;28;20441;-67
2022/11/19 12:48:06;;;;;;;1.67;1.13;;;9.50;99.90;;;;;;4990331;28;20497;-67
2022/11/19 12:50:45;;;;;;;2.63;2.07;;;9.50;99.90;;;;;;4992274;28;20533;-68
2022/11/19 12:53:29;;;;;;;1.80;1.70;;;9.40;99.90;;;;;;4990151;28;20457;-67
2022/11/19 12:56:15;;;;;;;1.60;1.33;;;9.40;99.90;;;;;;4990458;28;20780;-67
2022/11/19 12:58:53;;;;;;;2.63;1.90;;;9.30;99.90;;;;;;4990985;28;20970;-67
2022/11/19 13:01:25;;;;;;;3.53;2.17;;;9.30;99.90;;;;;;4984867;28;20454;-68
2022/11/19 13:04:30;;;;;;;3.70;2.50;;;9.20;99.90;;;;;;4992850;28;20494;-68
2022/11/19 13:07:13;;;;;;;1.60;1.50;;;9.20;99.90;;;;;;4991611;28;20442;-68
2022/11/19 13:09:43;;;;;;;2.60;2.40;;;9.10;99.90;;;;;;4991937;28;20513;-67
2022/11/19 13:12:26;;;;;;;1.67;1.50;;;9.10;99.90;;;;;;4991894;28;20439;-67
2022/11/19 13:15:01;;;;;;;4.40;1.77;;;9.10;99.90;;;;;;4992100;28;20522;-67
2022/11/19 13:17:39;;;;;;;1.63;1.50;;;9.20;99.90;;;;;;4986831;28;20465;-67
2022/11/19 13:20:23;;;;;;;2.30;2.13;;;9.30;99.90;;;;;;4990540;28;20488;-67
2022/11/19 13:22:54;;;;;;;3.63;1.97;;;9.40;99.90;;;;;;4991916;28;20450;-67
2022/11/19 13:25:27;;;;;;;4.70;3.30;;;9.40;99.90;;;;;;4988363;28;20505;-67
2022/11/19 13:27:56;;;;;;;2.03;1.87;;;9.50;99.90;;;;;;4987219;28;20471;-67
2022/11/19 13:30:26;;;;;;;12.03;6.33;;;9.50;99.90;;;;;;4983980;28;21028;-67
2022/11/19 13:33:10;;;;;;;4.30;3.03;;;9.60;99.90;;;;;;4991570;28;20439;-67
2022/11/19 13:35:58;;;;;;;10.07;7.57;;;9.50;99.90;;;;;;4989466;28;20956;-67
2022/11/19 13:38:43;;;;;;;2.80;1.70;;;9.50;99.90;;;;;;4984179;28;21265;-67
2022/11/19 13:41:32;;;;;;;3.00;1.80;;;9.40;99.90;;;;;;4991831;28;20442;-67